Time;durP1;ratioP1;P1;durP2;ratioP2;P2;SDS_P1;SDS_P2;PMS_P1;PMS_P2;Temp;Humidity;BMP_temperature;BMP_pressure;BME280_temperature;BME280_humidity;BME280_pressure;Samples;Min_cycle;Max_cycle;Signal;HPM_P1;HPM_P2
2023/09/07 00:01:54;;;;;;;7.60;6.90;;;;;;;;;;5037429;28;20481;-80
2023/09/07 00:04:22;;;;;;;7.33;6.63;;;;;;;;;;5038075;28;20485;-80
2023/09/07 00:06:49;;;;;;;9.20;6.90;;;;;;;;;;5037249;28;20480;-80
2023/09/07 00:09:18;;;;;;;14.80;7.03;;;;;;;;;;5036741;28;20819;-80
2023/09/07 00:11:45;;;;;;;11.53;9.03;;;;;;;;;;5037090;28;20453;-80
2023/09/07 00:14:13;;;;;;;10.53;6.93;;;;;;;;;;5037222;28;20940;-80
2023/09/07 00:16:41;;;;;;;18.03;7.40;;;;;;;;;;5037251;28;20458;-80
2023/09/07 00:19:08;;;;;;;14.87;8.70;;;;;;;;;;5037170;28;20507;-80
2023/09/07 00:21:35;;;;;;;13.17;8.60;;;;;;;;;;5036686;28;20444;-79
2023/09/07 00:24:05;;;;;;;14.33;7.90;;;;;;;;;;5037280;28;20501;-80
2023/09/07 00:26:32;;;;;;;11.87;7.93;;;;;;;;;;5000385;28;1100491;-79
2023/09/07 00:28:59;;;;;;;11.80;7.97;;;;;;;;;;5035681;28;20210;-78
2023/09/07 00:31:28;;;;;;;9.53;7.83;;;;;;;;;;5035648;28;20511;-78
2023/09/07 00:33:55;;;;;;;11.67;8.07;;;;;;;;;;5036418;28;20474;-78
2023/09/07 00:36:22;;;;;;;11.50;6.83;;;;;;;;;;5036371;28;20548;-78
2023/09/07 00:38:49;;;;;;;9.27;6.60;;;;;;;;;;5035470;28;20446;-78
2023/09/07 00:41:17;;;;;;;7.40;6.60;;;;;;;;;;5035446;28;20449;-78
2023/09/07 00:43:44;;;;;;;8.53;6.80;;;;;;;;;;5035587;28;20494;-78
2023/09/07 00:46:11;;;;;;;8.07;6.70;;;;;;;;;;5035302;28;20453;-78
2023/09/07 00:48:40;;;;;;;10.97;6.77;;;;;;;;;;5035018;28;20481;-78
2023/09/07 00:51:07;;;;;;;12.40;7.57;;;;;;;;;;5034732;28;20807;-78
2023/09/07 00:53:35;;;;;;;9.03;7.07;;;;;;;;;;5034659;28;20578;-78
2023/09/07 00:56:03;;;;;;;6.73;6.03;;;;;;;;;;5036990;28;20549;-81
2023/09/07 00:58:30;;;;;;;10.20;6.97;;;;;;;;;;5036770;28;20867;-82
2023/09/07 01:00:58;;;;;;;7.70;6.90;;;;;;;;;;5037239;28;20480;-81
2023/09/07 01:03:25;;;;;;;8.10;7.33;;;;;;;;;;5037119;28;20491;-81
2023/09/07 01:05:57;;;;;;;10.10;6.90;;;;;;;;;;5036620;28;20444;-82
2023/09/07 01:08:25;;;;;;;11.80;7.13;;;;;;;;;;5036815;28;20519;-82
2023/09/07 01:10:53;;;;;;;10.30;8.30;;;;;;;;;;5036432;28;20446;-81
2023/09/07 01:13:20;;;;;;;11.10;7.00;;;;;;;;;;5037272;28;20568;-81
2023/09/07 01:15:48;;;;;;;11.40;7.23;;;;;;;;;;5036704;28;20453;-82
2023/09/07 01:18:15;;;;;;;11.50;7.67;;;;;;;;;;5036695;28;20439;-81
2023/09/07 01:20:42;;;;;;;8.77;7.87;;;;;;;;;;5036692;28;20482;-81
2023/09/07 01:23:12;;;;;;;11.33;7.97;;;;;;;;;;5036621;28;21017;-81
2023/09/07 01:25:39;;;;;;;14.67;8.90;;;;;;;;;;5036588;28;20465;-81
2023/09/07 01:28:06;;;;;;;17.83;8.50;;;;;;;;;;5036347;28;20461;-81
2023/09/07 01:30:36;;;;;;;7.50;6.77;;;;;;;;;;5036158;28;20458;-81
2023/09/07 01:33:03;;;;;;;12.30;7.80;;;;;;;;;;5036538;28;20846;-81
2023/09/07 01:35:32;;;;;;;9.53;7.20;;;;;;;;;;5035547;28;20464;-81
2023/09/07 01:37:59;;;;;;;9.47;6.63;;;;;;;;;;5036282;28;20816;-81
2023/09/07 01:40:27;;;;;;;8.30;7.40;;;;;;;;;;5036384;28;20806;-81
2023/09/07 01:42:55;;;;;;;10.10;7.30;;;;;;;;;;5036604;28;20497;-81
2023/09/07 01:45:23;;;;;;;9.33;7.10;;;;;;;;;;5036364;28;20449;-81
2023/09/07 01:47:50;;;;;;;8.30;6.83;;;;;;;;;;5036347;28;20449;-81
2023/09/07 01:50:17;;;;;;;8.00;7.30;;;;;;;;;;5036139;28;20446;-81
2023/09/07 01:52:47;;;;;;;13.20;6.80;;;;;;;;;;5036263;28;20488;-81
2023/09/07 01:55:14;;;;;;;8.27;7.30;;;;;;;;;;5036491;28;20465;-80
2023/09/07 01:57:42;;;;;;;8.33;7.17;;;;;;;;;;5036064;28;20461;-81
2023/09/07 02:00:10;;;;;;;7.60;6.90;;;;;;;;;;5036641;28;20590;-81
2023/09/07 02:02:37;;;;;;;10.03;7.30;;;;;;;;;;5035958;28;20920;-81
2023/09/07 02:05:05;;;;;;;8.77;7.90;;;;;;;;;;5035898;28;20450;-81
2023/09/07 02:07:32;;;;;;;9.07;8.10;;;;;;;;;;5035670;28;20466;-81
2023/09/07 02:09:59;;;;;;;7.90;6.63;;;;;;;;;;5036088;28;20484;-81
2023/09/07 02:12:26;;;;;;;9.60;7.43;;;;;;;;;;5036211;28;20480;-80
2023/09/07 02:14:55;;;;;;;8.43;7.57;;;;;;;;;;5035963;28;20461;-81
2023/09/07 02:17:22;;;;;;;9.63;7.60;;;;;;;;;;5035270;28;20457;-81
2023/09/07 02:19:50;;;;;;;8.60;7.80;;;;;;;;;;5035193;28;20457;-81
2023/09/07 02:22:17;;;;;;;11.07;8.23;;;;;;;;;;5035742;28;22406;-81
2023/09/07 02:24:44;;;;;;;11.00;8.60;;;;;;;;;;5035503;28;20457;-81
2023/09/07 02:27:14;;;;;;;9.00;8.10;;;;;;;;;;5035901;28;20457;-81
2023/09/07 02:29:42;;;;;;;12.87;8.00;;;;;;;;;;5035673;28;20485;-81
2023/09/07 02:32:10;;;;;;;11.87;9.47;;;;;;;;;;5035663;28;20469;-81
2023/09/07 02:34:42;;;;;;;9.90;8.50;;;;;;;;;;5036409;28;20842;-80
2023/09/07 02:37:09;;;;;;;9.90;8.90;;;;;;;;;;5035396;28;20458;-81
2023/09/07 02:39:36;;;;;;;10.97;8.77;;;;;;;;;;5035623;28;20457;-80
2023/09/07 02:42:03;;;;;;;9.17;8.33;;;;;;;;;;5035817;28;20449;-80
2023/09/07 02:44:31;;;;;;;11.00;8.87;;;;;;;;;;5037706;28;20469;-80
2023/09/07 02:46:58;;;;;;;15.57;9.60;;;;;;;;;;5039818;28;20464;-82
2023/09/07 02:49:26;;;;;;;9.57;8.67;;;;;;;;;;5039262;28;20456;-81
2023/09/07 02:51:53;;;;;;;12.83;10.57;;;;;;;;;;5039595;28;20445;-81
2023/09/07 02:54:20;;;;;;;15.23;8.67;;;;;;;;;;5039765;28;20484;-81
2023/09/07 02:56:49;;;;;;;10.97;9.43;;;;;;;;;;5038804;28;20533;-81
2023/09/07 02:59:16;;;;;;;10.23;7.73;;;;;;;;;;5044080;28;20883;-78
2023/09/07 03:01:43;;;;;;;10.60;9.17;;;;;;;;;;5045110;28;20441;-78
2023/09/07 03:04:10;;;;;;;16.73;9.03;;;;;;;;;;5046836;28;20493;-78
2023/09/07 03:06:39;;;;;;;10.10;8.93;;;;;;;;;;5046211;28;20828;-78
2023/09/07 03:09:08;;;;;;;8.67;7.80;;;;;;;;;;5046045;28;20457;-78
2023/09/07 03:11:36;;;;;;;9.23;8.33;;;;;;;;;;5043040;28;20457;-78
2023/09/07 03:14:03;;;;;;;9.60;8.53;;;;;;;;;;5043053;28;20552;-79
2023/09/07 03:16:31;;;;;;;9.20;8.30;;;;;;;;;;5043043;28;20536;-78
2023/09/07 03:18:58;;;;;;;12.53;8.77;;;;;;;;;;5043917;28;20949;-78
2023/09/07 03:21:29;;;;;;;10.17;8.33;;;;;;;;;;5043007;28;20939;-78
2023/09/07 03:23:57;;;;;;;9.60;8.60;;;;;;;;;;5042789;28;21012;-78
2023/09/07 03:26:24;;;;;;;10.00;9.00;;;;;;;;;;5042820;28;20464;-78
2023/09/07 03:28:52;;;;;;;10.07;8.93;;;;;;;;;;5043703;28;20473;-78
2023/09/07 03:31:20;;;;;;;9.80;8.80;;;;;;;;;;5042751;28;20457;-79
2023/09/07 03:33:47;;;;;;;12.53;10.27;;;;;;;;;;5039306;28;20473;-81
2023/09/07 03:36:14;;;;;;;10.53;9.53;;;;;;;;;;5038619;28;20465;-81
2023/09/07 03:38:42;;;;;;;16.93;9.77;;;;;;;;;;5038355;28;20856;-81
2023/09/07 03:41:10;;;;;;;11.53;9.30;;;;;;;;;;5038498;28;20462;-80
2023/09/07 03:43:37;;;;;;;11.33;10.13;;;;;;;;;;5036949;28;20497;-81
2023/09/07 03:46:04;;;;;;;10.67;9.57;;;;;;;;;;5038192;28;20812;-81
2023/09/07 03:48:32;;;;;;;11.90;10.10;;;;;;;;;;5038364;28;20458;-81
2023/09/07 03:50:59;;;;;;;15.40;11.23;;;;;;;;;;5038368;28;20454;-81
2023/09/07 03:53:26;;;;;;;12.50;9.77;;;;;;;;;;5038443;28;20553;-81
2023/09/07 03:55:53;;;;;;;12.30;10.27;;;;;;;;;;5037007;28;20806;-81
2023/09/07 03:58:22;;;;;;;11.63;10.43;;;;;;;;;;5038120;28;20520;-81
2023/09/07 04:00:49;;;;;;;12.60;10.13;;;;;;;;;;5037983;28;20498;-81
2023/09/07 04:03:16;;;;;;;13.83;10.97;;;;;;;;;;5038016;28;20838;-81
2023/09/07 04:05:43;;;;;;;11.77;9.53;;;;;;;;;;5038106;28;20461;-81
2023/09/07 04:08:10;;;;;;;14.70;9.87;;;;;;;;;;5038124;28;20947;-81
2023/09/07 04:10:38;;;;;;;12.63;9.63;;;;;;;;;;5037690;28;20445;-81
2023/09/07 04:13:06;;;;;;;11.67;9.93;;;;;;;;;;5038034;28;20470;-81
2023/09/07 04:15:36;;;;;;;13.10;10.40;;;;;;;;;;5037760;28;20499;-81
2023/09/07 04:18:03;;;;;;;17.87;10.17;;;;;;;;;;5038144;28;20456;-81
2023/09/07 04:20:30;;;;;;;19.87;13.63;;;;;;;;;;5037137;28;20440;-81
2023/09/07 04:22:57;;;;;;;10.50;9.33;;;;;;;;;;5037733;28;20560;-80
2023/09/07 04:25:25;;;;;;;10.07;9.00;;;;;;;;;;5036645;28;20478;-82
2023/09/07 04:27:52;;;;;;;11.40;9.10;;;;;;;;;;5037793;28;20446;-81
2023/09/07 04:30:20;;;;;;;13.93;9.17;;;;;;;;;;5036502;28;20822;-81
2023/09/07 04:32:49;;;;;;;10.10;9.10;;;;;;;;;;5037708;28;20473;-81
2023/09/07 04:35:16;;;;;;;10.73;9.20;;;;;;;;;;5037471;28;20518;-81
2023/09/07 04:37:44;;;;;;;13.47;10.77;;;;;;;;;;5036584;28;20435;-82
2023/09/07 04:40:11;;;;;;;10.73;9.13;;;;;;;;;;5036154;28;20448;-79
2023/09/07 04:42:39;;;;;;;12.40;9.67;;;;;;;;;;5036352;28;20462;-80
2023/09/07 04:45:06;;;;;;;11.97;9.23;;;;;;;;;;5036040;28;20468;-79
2023/09/07 04:47:33;;;;;;;10.33;9.33;;;;;;;;;;5035758;28;20553;-82
2023/09/07 04:50:04;;;;;;;11.57;10.33;;;;;;;;;;5036176;28;20442;-82
2023/09/07 04:52:31;;;;;;;10.67;8.87;;;;;;;;;;5036597;28;20540;-81
2023/09/07 04:54:58;;;;;;;17.03;8.73;;;;;;;;;;5036669;28;20450;-81
2023/09/07 04:57:25;;;;;;;9.83;8.30;;;;;;;;;;5036192;28;20534;-81
2023/09/07 04:59:52;;;;;;;14.83;9.03;;;;;;;;;;5035435;28;20465;-81
2023/09/07 05:02:20;;;;;;;26.10;13.27;;;;;;;;;;5035532;28;20477;-80
2023/09/07 05:04:47;;;;;;;15.87;8.87;;;;;;;;;;5035522;28;20485;-80
2023/09/07 05:07:15;;;;;;;20.37;15.33;;;;;;;;;;5033964;28;20476;-81
2023/09/07 05:09:42;;;;;;;16.87;13.47;;;;;;;;;;5034967;28;20521;-80
2023/09/07 05:12:10;;;;;;;12.50;8.27;;;;;;;;;;5035299;28;20462;-80
2023/09/07 05:14:37;;;;;;;10.43;8.27;;;;;;;;;;5035899;28;20858;-80
2023/09/07 05:17:05;;;;;;;8.90;8.00;;;;;;;;;;5035681;28;20808;-81
2023/09/07 05:19:32;;;;;;;16.20;9.03;;;;;;;;;;5035153;28;20446;-81
2023/09/07 05:21:59;;;;;;;9.10;8.20;;;;;;;;;;5035404;28;20454;-81
2023/09/07 05:24:27;;;;;;;22.10;13.30;;;;;;;;;;5035240;28;20500;-81
2023/09/07 05:26:55;;;;;;;11.87;9.47;;;;;;;;;;5035201;28;20802;-81
2023/09/07 05:29:22;;;;;;;9.23;7.00;;;;;;;;;;5035113;28;20453;-81
2023/09/07 05:31:49;;;;;;;8.00;7.20;;;;;;;;;;5035664;28;20450;-81
2023/09/07 05:34:16;;;;;;;7.10;6.50;;;;;;;;;;5035884;28;20476;-80
2023/09/07 05:36:44;;;;;;;8.03;6.80;;;;;;;;;;5035637;28;20454;-80
2023/09/07 05:39:11;;;;;;;8.47;7.20;;;;;;;;;;5034976;28;20454;-80
2023/09/07 05:41:39;;;;;;;9.17;7.90;;;;;;;;;;5035625;28;20448;-80
2023/09/07 05:44:06;;;;;;;7.13;6.53;;;;;;;;;;5035169;28;20520;-80
2023/09/07 05:46:34;;;;;;;10.03;7.57;;;;;;;;;;5035050;28;20784;-81
2023/09/07 05:49:01;;;;;;;8.40;6.30;;;;;;;;;;5034070;28;21014;-80
2023/09/07 05:51:28;;;;;;;9.23;7.57;;;;;;;;;;5035603;28;20445;-81
2023/09/07 05:54:01;;;;;;;8.37;7.37;;;;;;;;;;5042486;28;20480;-78
2023/09/07 05:56:30;;;;;;;7.33;6.73;;;;;;;;;;5054001;28;20457;-77
2023/09/07 05:58:58;;;;;;;8.23;7.43;;;;;;;;;;5054133;28;20527;-78
2023/09/07 06:01:25;;;;;;;7.50;6.70;;;;;;;;;;5053937;28;20505;-79
2023/09/07 06:03:52;;;;;;;7.63;6.60;;;;;;;;;;5055541;28;20503;-80
2023/09/07 06:06:19;;;;;;;9.93;6.90;;;;;;;;;;5055389;28;20448;-80
2023/09/07 06:08:47;;;;;;;5.67;5.10;;;;;;;;;;5055331;28;20460;-81
2023/09/07 06:11:14;;;;;;;5.80;5.30;;;;;;;;;;5055432;28;20449;-79
2023/09/07 06:13:41;;;;;;;4.97;4.57;;;;;;;;;;5054414;28;20523;-79
2023/09/07 06:16:10;;;;;;;5.30;4.80;;;;;;;;;;5054167;28;20445;-79
2023/09/07 06:18:37;;;;;;;6.70;5.20;;;;;;;;;;5054882;28;20964;-80
2023/09/07 06:21:05;;;;;;;4.93;4.50;;;;;;;;;;5045056;28;20464;-79
2023/09/07 06:23:32;;;;;;;5.00;4.60;;;;;;;;;;5038746;28;20489;-80
2023/09/07 06:25:59;;;;;;;5.53;5.03;;;;;;;;;;5037892;28;20946;-80
2023/09/07 06:28:27;;;;;;;10.80;4.83;;;;;;;;;;5038248;28;20449;-80
2023/09/07 06:30:54;;;;;;;6.53;4.23;;;;;;;;;;5038267;28;20457;-80
2023/09/07 06:33:22;;;;;;;6.20;4.30;;;;;;;;;;5038291;28;20999;-80
2023/09/07 06:35:50;;;;;;;5.27;4.77;;;;;;;;;;5039450;28;20526;-80
2023/09/07 06:38:17;;;;;;;4.03;3.67;;;;;;;;;;5039585;28;20444;-79
2023/09/07 06:40:49;;;;;;;8.10;4.60;;;;;;;;;;5039439;28;20459;-80
2023/09/07 06:43:16;;;;;;;4.20;3.87;;;;;;;;;;5039694;28;20491;-79
2023/09/07 06:45:43;;;;;;;6.20;4.10;;;;;;;;;;5040407;28;20493;-79
2023/09/07 06:48:10;;;;;;;4.10;3.80;;;;;;;;;;5039679;28;20818;-79
2023/09/07 06:50:38;;;;;;;4.10;3.67;;;;;;;;;;5039792;28;20560;-80
2023/09/07 06:53:06;;;;;;;4.10;3.70;;;;;;;;;;5039371;28;20483;-80
2023/09/07 06:55:33;;;;;;;4.50;3.37;;;;;;;;;;5040513;28;20449;-79
2023/09/07 06:58:01;;;;;;;9.03;4.17;;;;;;;;;;5039907;28;20457;-79
2023/09/07 07:00:28;;;;;;;7.13;4.33;;;;;;;;;;5040685;28;20485;-81
2023/09/07 07:02:56;;;;;;;7.30;5.30;;;;;;;;;;5041163;28;20472;-81
2023/09/07 07:05:23;;;;;;;5.57;3.83;;;;;;;;;;5040093;28;20488;-82
2023/09/07 07:07:52;;;;;;;14.33;3.80;;;;;;;;;;5039599;28;20440;-82
2023/09/07 07:10:19;;;;;;;4.57;4.13;;;;;;;;;;5038814;28;20467;-82
2023/09/07 07:12:46;;;;;;;6.23;4.63;;;;;;;;;;5039838;28;20465;-82
2023/09/07 07:15:13;;;;;;;4.37;3.77;;;;;;;;;;5038778;28;20463;-81
2023/09/07 07:17:40;;;;;;;8.53;4.23;;;;;;;;;;5038868;28;20464;-82
2023/09/07 07:20:08;;;;;;;6.80;4.40;;;;;;;;;;5038366;28;20460;-83
2023/09/07 07:22:36;;;;;;;6.50;4.80;;;;;;;;;;5039048;28;20472;-83
2023/09/07 07:25:05;;;;;;;4.27;3.87;;;;;;;;;;5038490;28;20865;-82
2023/09/07 07:27:32;;;;;;;4.20;3.80;;;;;;;;;;5037996;28;20445;-82
2023/09/07 07:30:00;;;;;;;4.70;4.30;;;;;;;;;;5038642;28;20457;-82
2023/09/07 07:32:27;;;;;;;6.03;3.73;;;;;;;;;;5037996;28;20468;-83
2023/09/07 07:34:54;;;;;;;5.07;4.67;;;;;;;;;;5038689;28;20472;-83
2023/09/07 07:37:21;;;;;;;7.83;5.50;;;;;;;;;;5037564;28;20450;-84
2023/09/07 07:39:48;;;;;;;4.83;4.43;;;;;;;;;;5037943;28;20449;-84
2023/09/07 07:42:18;;;;;;;7.03;3.83;;;;;;;;;;5038319;28;20466;-82
2023/09/07 07:44:45;;;;;;;5.13;4.73;;;;;;;;;;5038089;28;20617;-84
2023/09/07 07:47:12;;;;;;;5.50;5.00;;;;;;;;;;5038048;28;20824;-84
2023/09/07 07:49:39;;;;;;;4.33;4.03;;;;;;;;;;5037179;28;20438;-83
2023/09/07 07:52:07;;;;;;;4.87;4.43;;;;;;;;;;5036451;28;20446;-84
2023/09/07 07:54:35;;;;;;;9.93;4.43;;;;;;;;;;5037383;28;20869;-82
2023/09/07 07:57:02;;;;;;;7.80;4.30;;;;;;;;;;5037209;28;20453;-82
2023/09/07 07:59:31;;;;;;;7.83;4.77;;;;;;;;;;5037368;28;20450;-82
2023/09/07 08:01:58;;;;;;;4.50;4.10;;;;;;;;;;5037195;28;20944;-84
2023/09/07 08:04:25;;;;;;;4.47;4.07;;;;;;;;;;5036415;28;20540;-84
2023/09/07 08:06:56;;;;;;;4.23;3.83;;;;;;;;;;5037537;28;20552;-84
2023/09/07 08:09:23;;;;;;;4.50;4.10;;;;;;;;;;5036826;28;20464;-84
2023/09/07 08:11:51;;;;;;;5.37;3.90;;;;;;;;;;5037418;28;20461;-82
2023/09/07 08:14:18;;;;;;;5.23;4.73;;;;;;;;;;5037458;28;20902;-82
2023/09/07 08:16:47;;;;;;;11.60;5.17;;;;;;;;;;5037002;28;20476;-83
2023/09/07 08:19:14;;;;;;;5.90;5.10;;;;;;;;;;5036751;28;20894;-81
2023/09/07 08:21:42;;;;;;;5.00;4.60;;;;;;;;;;5037093;28;20449;-81
2023/09/07 08:24:09;;;;;;;6.50;4.17;;;;;;;;;;5036994;28;20481;-81
2023/09/07 08:26:37;;;;;;;5.17;4.67;;;;;;;;;;5036998;28;20470;-82
2023/09/07 08:29:05;;;;;;;4.60;4.20;;;;;;;;;;5036332;28;20465;-81
2023/09/07 08:31:34;;;;;;;4.47;3.83;;;;;;;;;;5036578;28;20454;-81
2023/09/07 08:34:03;;;;;;;4.60;4.20;;;;;;;;;;5036192;28;20515;-81
2023/09/07 08:36:32;;;;;;;4.40;4.07;;;;;;;;;;5036677;28;20442;-83
2023/09/07 08:39:01;;;;;;;4.27;3.80;;;;;;;;;;5036068;28;20573;-81
2023/09/07 08:41:28;;;;;;;4.50;4.10;;;;;;;;;;5035979;28;20450;-82
2023/09/07 08:43:56;;;;;;;4.43;3.83;;;;;;;;;;5037051;28;20841;-81
2023/09/07 08:46:24;;;;;;;5.07;4.20;;;;;;;;;;5036829;28;20591;-82
2023/09/07 08:48:51;;;;;;;4.83;4.43;;;;;;;;;;5036510;28;20468;-81
2023/09/07 08:51:20;;;;;;;4.30;3.70;;;;;;;;;;5036263;28;20528;-82
2023/09/07 08:53:49;;;;;;;4.80;4.40;;;;;;;;;;5036541;28;20474;-84
2023/09/07 08:56:16;;;;;;;4.43;4.03;;;;;;;;;;5036522;28;20827;-83
2023/09/07 08:58:44;;;;;;;6.73;5.10;;;;;;;;;;5036060;28;20450;-81
2023/09/07 09:01:12;;;;;;;4.67;4.27;;;;;;;;;;5036174;28;20496;-82
2023/09/07 09:03:39;;;;;;;5.83;4.20;;;;;;;;;;5035677;28;20558;-81
2023/09/07 09:06:07;;;;;;;4.43;4.03;;;;;;;;;;5035984;28;20508;-80
2023/09/07 09:08:44;;;;;;;4.50;4.10;;;;;;;;;;5035842;28;20677;-82
2023/09/07 09:11:11;;;;;;;4.40;4.00;;;;;;;;;;5036141;28;20434;-81
2023/09/07 09:13:38;;;;;;;5.13;4.17;;;;;;;;;;5035380;28;20492;-83
2023/09/07 09:16:06;;;;;;;4.50;4.10;;;;;;;;;;5035926;28;20519;-83
2023/09/07 09:18:33;;;;;;;7.00;4.43;;;;;;;;;;5035984;28;20463;-82
2023/09/07 09:21:00;;;;;;;9.33;4.60;;;;;;;;;;5035544;28;20832;-81
2023/09/07 09:23:32;;;;;;;5.53;4.20;;;;;;;;;;5035958;28;20488;-82
2023/09/07 09:26:03;;;;;;;4.13;3.63;;;;;;;;;;5036783;28;20982;-83
2023/09/07 09:28:31;;;;;;;4.70;4.20;;;;;;;;;;5039017;28;20461;-82
2023/09/07 09:30:59;;;;;;;5.37;4.73;;;;;;;;;;5037719;28;20473;-80
2023/09/07 09:33:27;;;;;;;4.70;4.10;;;;;;;;;;5038555;28;20466;-81
2023/09/07 09:35:56;;;;;;;4.97;4.47;;;;;;;;;;5038314;28;20453;-79
2023/09/07 09:38:23;;;;;;;12.00;4.33;;;;;;;;;;5038961;28;20926;-82
2023/09/07 09:40:51;;;;;;;6.80;4.43;;;;;;;;;;5036680;28;20958;-80
2023/09/07 09:43:21;;;;;;;7.00;4.10;;;;;;;;;;5037580;28;20993;-81
2023/09/07 09:45:50;;;;;;;5.03;4.20;;;;;;;;;;5036953;28;20483;-83
2023/09/07 09:48:18;;;;;;;5.83;4.03;;;;;;;;;;5037497;28;20492;-83
2023/09/07 09:50:46;;;;;;;6.87;4.20;;;;;;;;;;5036277;28;20461;-82
2023/09/07 09:53:18;;;;;;;4.17;3.57;;;;;;;;;;5034851;28;20477;-85
2023/09/07 09:55:46;;;;;;;4.50;4.10;;;;;;;;;;5036716;28;20823;-81
2023/09/07 09:58:13;;;;;;;5.10;4.70;;;;;;;;;;5038459;28;20831;-82
2023/09/07 10:00:44;;;;;;;6.73;5.20;;;;;;;;;;5037404;28;20506;-82
2023/09/07 10:03:14;;;;;;;11.00;4.10;;;;;;;;;;5037099;28;20465;-82
2023/09/07 10:05:41;;;;;;;5.00;4.50;;;;;;;;;;5037801;28;20485;-81
2023/09/07 10:08:11;;;;;;;8.77;4.60;;;;;;;;;;5035792;28;20867;-83
2023/09/07 10:10:38;;;;;;;4.20;3.80;;;;;;;;;;5035850;28;20457;-80
2023/09/07 10:13:06;;;;;;;8.20;3.67;;;;;;;;;;5035497;28;20474;-80
2023/09/07 10:15:35;;;;;;;6.00;4.83;;;;;;;;;;5035264;28;20960;-80
2023/09/07 10:18:12;;;;;;;4.50;4.10;;;;;;;;;;5035572;28;20481;-80
2023/09/07 10:20:50;;;;;;;6.23;4.20;;;;;;;;;;5035808;28;20938;-80
2023/09/07 10:23:17;;;;;;;6.13;4.23;;;;;;;;;;5035573;28;20478;-80
2023/09/07 10:25:49;;;;;;;3.90;3.60;;;;;;;;;;5035373;28;20492;-79
2023/09/07 10:28:23;;;;;;;5.73;4.00;;;;;;;;;;5035137;28;20426;-79
2023/09/07 10:31:14;;;;;;;6.67;4.80;;;;;;;;;;5034218;28;20477;-80
2023/09/07 10:33:43;;;;;;;4.90;4.10;;;;;;;;;;5034845;28;20478;-79
2023/09/07 10:36:10;;;;;;;11.37;6.23;;;;;;;;;;5034678;28;20458;-80
2023/09/07 10:38:39;;;;;;;4.83;4.33;;;;;;;;;;5035433;28;20449;-79
2023/09/07 10:41:06;;;;;;;9.23;4.07;;;;;;;;;;5035238;28;20909;-79
2023/09/07 10:43:34;;;;;;;7.50;4.10;;;;;;;;;;5035564;28;20839;-79
2023/09/07 10:46:01;;;;;;;8.00;4.60;;;;;;;;;;5035199;28;20489;-80
2023/09/07 10:48:30;;;;;;;9.13;3.97;;;;;;;;;;5038607;28;20458;-81
2023/09/07 10:50:59;;;;;;;5.37;4.40;;;;;;;;;;5037619;28;20438;-82
2023/09/07 10:53:28;;;;;;;4.80;4.07;;;;;;;;;;5035512;28;20479;-81
2023/09/07 10:55:56;;;;;;;4.47;4.07;;;;;;;;;;5035136;28;20504;-81
2023/09/07 10:58:27;;;;;;;4.63;4.23;;;;;;;;;;5036172;28;20445;-80
2023/09/07 11:00:54;;;;;;;6.47;4.70;;;;;;;;;;5036591;28;20458;-80
2023/09/07 11:03:21;;;;;;;7.27;4.60;;;;;;;;;;5037314;28;20992;-82
2023/09/07 11:05:50;;;;;;;4.70;4.30;;;;;;;;;;5038480;28;20489;-81
2023/09/07 11:08:18;;;;;;;5.13;4.27;;;;;;;;;;5040845;28;20438;-79
2023/09/07 11:10:45;;;;;;;4.40;4.10;;;;;;;;;;5042183;28;20472;-79
2023/09/07 11:13:12;;;;;;;5.80;3.90;;;;;;;;;;5040393;28;20838;-80
2023/09/07 11:15:40;;;;;;;8.87;4.03;;;;;;;;;;5041260;28;20464;-82
2023/09/07 11:18:07;;;;;;;4.37;3.97;;;;;;;;;;5041121;28;20462;-82
2023/09/07 11:20:35;;;;;;;4.57;4.17;;;;;;;;;;5040893;28;20903;-79
2023/09/07 11:23:02;;;;;;;5.13;4.10;;;;;;;;;;5041460;28;20480;-79
2023/09/07 11:25:35;;;;;;;4.00;3.70;;;;;;;;;;5041355;28;20595;-78
2023/09/07 11:28:03;;;;;;;6.40;4.53;;;;;;;;;;5040306;28;20457;-78
2023/09/07 11:30:30;;;;;;;4.30;3.90;;;;;;;;;;5040671;28;20483;-81
2023/09/07 11:33:04;;;;;;;5.93;3.97;;;;;;;;;;5041768;28;20585;-81
2023/09/07 11:35:31;;;;;;;4.70;4.20;;;;;;;;;;5040217;28;20468;-79
2023/09/07 11:37:58;;;;;;;5.53;4.23;;;;;;;;;;5040833;28;20453;-80
2023/09/07 11:40:25;;;;;;;5.70;4.13;;;;;;;;;;5042256;28;20478;-80
2023/09/07 11:42:54;;;;;;;5.63;3.90;;;;;;;;;;5043389;28;20478;-79
2023/09/07 11:45:21;;;;;;;4.87;4.37;;;;;;;;;;5042163;28;20481;-78
2023/09/07 11:47:48;;;;;;;6.10;4.43;;;;;;;;;;5040665;28;20965;-78
2023/09/07 11:50:15;;;;;;;7.10;4.57;;;;;;;;;;5039511;28;20500;-79
2023/09/07 11:52:42;;;;;;;6.50;4.90;;;;;;;;;;5039596;28;20583;-78
2023/09/07 11:55:10;;;;;;;6.30;4.73;;;;;;;;;;5040804;28;20449;-80
2023/09/07 11:57:37;;;;;;;5.70;4.13;;;;;;;;;;5039277;28;20553;-79
2023/09/07 12:00:10;;;;;;;5.57;4.40;;;;;;;;;;5042927;28;20859;-80
2023/09/07 12:02:38;;;;;;;6.27;5.37;;;;;;;;;;5041840;28;20886;-82
2023/09/07 12:05:07;;;;;;;22.17;14.97;;;;;;;;;;5040859;28;20457;-81
2023/09/07 12:07:34;;;;;;;5.43;4.87;;;;;;;;;;5040815;28;20523;-83
2023/09/07 12:10:01;;;;;;;4.37;3.97;;;;;;;;;;5041690;28;20446;-82
2023/09/07 12:12:29;;;;;;;9.00;4.00;;;;;;;;;;5042594;28;20599;-81
2023/09/07 12:14:56;;;;;;;4.40;3.70;;;;;;;;;;5043299;28;20460;-81
2023/09/07 12:17:25;;;;;;;5.67;4.93;;;;;;;;;;5044113;28;20938;-79
2023/09/07 12:19:52;;;;;;;9.17;4.43;;;;;;;;;;5042047;28;20443;-82
2023/09/07 12:22:19;;;;;;;5.80;4.30;;;;;;;;;;5040778;28;20997;-83
2023/09/07 12:24:47;;;;;;;7.10;4.60;;;;;;;;;;5045781;28;20463;-79
2023/09/07 12:27:14;;;;;;;4.53;4.10;;;;;;;;;;5045499;28;20486;-80
2023/09/07 12:29:41;;;;;;;7.80;4.20;;;;;;;;;;5046245;28;20947;-80
2023/09/07 12:32:08;;;;;;;5.20;4.70;;;;;;;;;;5045927;28;20450;-81
2023/09/07 12:34:37;;;;;;;6.60;4.40;;;;;;;;;;5044958;28;20445;-82
2023/09/07 12:37:04;;;;;;;6.13;4.17;;;;;;;;;;5044619;28;20450;-80
2023/09/07 12:39:32;;;;;;;11.93;5.20;;;;;;;;;;5046239;28;20454;-82
2023/09/07 12:41:59;;;;;;;5.87;4.90;;;;;;;;;;5044823;28;20454;-81
2023/09/07 12:44:26;;;;;;;8.77;3.80;;;;;;;;;;5045204;28;20489;-81
2023/09/07 12:46:53;;;;;;;4.20;3.80;;;;;;;;;;5042837;28;20486;-80
2023/09/07 12:49:20;;;;;;;5.10;3.70;;;;;;;;;;5043872;28;20449;-80
2023/09/07 12:51:49;;;;;;;6.40;3.40;;;;;;;;;;5043475;28;20465;-80
2023/09/07 12:54:17;;;;;;;4.63;4.23;;;;;;;;;;5040341;28;20871;-81
2023/09/07 12:56:45;;;;;;;11.00;5.07;;;;;;;;;;5039988;28;20458;-79
2023/09/07 12:59:12;;;;;;;5.07;3.97;;;;;;;;;;5043723;28;20453;-79
2023/09/07 13:01:39;;;;;;;5.20;4.80;;;;;;;;;;5045228;28;20453;-79
2023/09/07 13:04:07;;;;;;;4.27;3.83;;;;;;;;;;5045344;28;20478;-79
2023/09/07 13:06:34;;;;;;;4.80;4.33;;;;;;;;;;5047095;28;20517;-80
2023/09/07 13:09:04;;;;;;;7.30;4.70;;;;;;;;;;5048142;28;20894;-80
2023/09/07 13:11:31;;;;;;;4.63;4.03;;;;;;;;;;5050316;28;20442;-81
2023/09/07 13:13:59;;;;;;;5.43;4.37;;;;;;;;;;5049703;28;20492;-79
2023/09/07 13:16:26;;;;;;;5.60;4.97;;;;;;;;;;5049068;28;20453;-80
2023/09/07 13:18:53;;;;;;;6.17;4.60;;;;;;;;;;5047841;28;20513;-81
2023/09/07 13:21:20;;;;;;;5.57;4.40;;;;;;;;;;5048476;28;20454;-81
2023/09/07 13:23:47;;;;;;;8.33;4.90;;;;;;;;;;5046999;28;20545;-80
2023/09/07 13:26:16;;;;;;;4.60;3.90;;;;;;;;;;5049437;28;20489;-82
2023/09/07 13:28:43;;;;;;;7.03;4.67;;;;;;;;;;5042315;28;20457;-79
2023/09/07 13:31:10;;;;;;;5.00;4.30;;;;;;;;;;5042938;28;20537;-80
2023/09/07 13:33:38;;;;;;;5.10;4.20;;;;;;;;;;5045159;28;20473;-80
2023/09/07 13:36:05;;;;;;;4.70;3.80;;;;;;;;;;5043019;28;20472;-80
2023/09/07 13:38:32;;;;;;;4.30;3.90;;;;;;;;;;5042506;28;20450;-80
2023/09/07 13:40:59;;;;;;;6.50;3.80;;;;;;;;;;5042373;28;20470;-79
2023/09/07 13:43:28;;;;;;;13.27;4.23;;;;;;;;;;5043408;28;20492;-80
2023/09/07 13:45:55;;;;;;;5.50;4.03;;;;;;;;;;5037788;28;20598;-79
2023/09/07 13:48:22;;;;;;;5.73;3.93;;;;;;;;;;5039513;28;20452;-79
2023/09/07 13:50:49;;;;;;;6.20;3.33;;;;;;;;;;5035673;28;20461;-78
2023/09/07 13:53:16;;;;;;;5.20;4.63;;;;;;;;;;5034298;28;20822;-77
2023/09/07 13:55:46;;;;;;;4.63;4.20;;;;;;;;;;5034559;28;20449;-76
2023/09/07 13:58:13;;;;;;;5.13;4.10;;;;;;;;;;5033238;28;20460;-76
2023/09/07 14:00:41;;;;;;;6.57;4.20;;;;;;;;;;5032193;28;20498;-76
2023/09/07 14:03:08;;;;;;;12.30;5.43;;;;;;;;;;5033885;28;20474;-77
2023/09/07 14:05:36;;;;;;;4.63;4.17;;;;;;;;;;5033733;28;20560;-79
2023/09/07 14:08:03;;;;;;;4.93;4.30;;;;;;;;;;5035734;28;20535;-81
2023/09/07 14:10:30;;;;;;;5.63;3.90;;;;;;;;;;5033930;28;20931;-79
2023/09/07 14:12:57;;;;;;;4.63;4.10;;;;;;;;;;5032705;28;20473;-76
2023/09/07 14:15:24;;;;;;;5.43;3.90;;;;;;;;;;5033110;28;20540;-78
2023/09/07 14:17:53;;;;;;;7.10;4.33;;;;;;;;;;5032886;28;20811;-77
2023/09/07 14:20:20;;;;;;;5.47;3.87;;;;;;;;;;5032683;28;20442;-77
2023/09/07 14:22:47;;;;;;;6.27;4.00;;;;;;;;;;5033305;28;21001;-78
2023/09/07 14:25:16;;;;;;;4.20;3.40;;;;;;;;;;5034693;28;20466;-77
2023/09/07 14:27:43;;;;;;;8.03;4.10;;;;;;;;;;5032486;28;20505;-77
2023/09/07 14:30:11;;;;;;;5.70;3.30;;;;;;;;;;5035828;28;20474;-79
2023/09/07 14:32:39;;;;;;;6.13;5.03;;;;;;;;;;5035742;28;20474;-76
2023/09/07 14:35:09;;;;;;;4.73;4.23;;;;;;;;;;5036171;28;20457;-76
2023/09/07 14:37:36;;;;;;;4.73;3.90;;;;;;;;;;5033363;28;20438;-78
2023/09/07 14:40:03;;;;;;;5.03;4.23;;;;;;;;;;5038272;28;20477;-81
2023/09/07 14:42:30;;;;;;;4.80;3.93;;;;;;;;;;5049345;28;20497;-80